Rainbow City, AL

6:57 AM CST on February 08, 2016 (GMT -0600)
Gadsden Municipal

Weather History for KGAD - October, 2011

Change the Weather History Date:

Thursday, October 20, 2011

  Actual Average Record
Temperature  
Mean Temperature 47 °F -  
Max Temperature 55 °F 70 °F 90 °F (1941)
Min Temperature 39 °F 45 °F 29 °F (1948)
Degree Days  
Heating Degree Days 18    
Moisture  
Dew Point 36 °F    
Average Humidity 65    
Maximum Humidity 87    
Minimum Humidity 47    
Precipitation  
Precipitation 0.00 in - - ()
Sea Level Pressure  
Sea Level Pressure 29.95 in    
Wind  
Wind Speed 11 mph (West)    
Max Wind Speed 17 mph    
Max Gust Speed 22 mph    
Visibility 10 miles    
Events      
Averages and records for this station are not official NWS values.
T = Trace of Precipitation, MM = Missing Value Source: NWS Daily Summary

Daily Weather History Graph

Daily Weather History Graph

Search for Another Location

Airport or City:

Trip Planner

Search our weather history database for the weather conditions in past years. The results will help you decide how hot, cold, wet, or windy it might be!

Date:

Astronomy

Oct. 20, 2011 Rise Set
Actual Time 6:53 AM CDT 6:04 PM CDT
Civil Twilight 6:27 AM CDT 6:29 PM CDT
Nautical Twilight 5:58 AM CDT 6:59 PM CDT
Astronomical Twilight 5:29 AM CDT 7:27 PM CDT
Moon No Moon Rise 1:55 PM CDT (10/20)
Length of Visible Light 12h 02m
Length of Day
11h 11m
Last Quarter, 44% of the Moon is Illuminated
Oct 20
Last Quarter
Oct 26
New
Nov 2
First Quarter
Nov 10
Full
Nov 18
Last Quarter

Hourly Weather History & Observations

Time (CDT) Temp. Windchill Dew Point Humidity Pressure Visibility Wind Dir Wind Speed Gust Speed Precip Events Conditions
12:15 AM 46.4 °F 40.4 °F 39.2 °F 76% 29.83 in 10.0 mi West 13.8 mph 18.4 mph N/A   Overcast
12:35 AM 46.4 °F 41.1 °F 39.2 °F 76% 29.84 in 10.0 mi WSW 11.5 mph 17.3 mph N/A   Overcast
12:55 AM 46.4 °F 41.1 °F 39.2 °F 76% 29.84 in 10.0 mi West 11.5 mph - N/A   Overcast
1:35 AM 44.6 °F 38.4 °F 37.4 °F 76% 29.85 in 10.0 mi WSW 12.7 mph - N/A   Overcast
2:15 AM 46.4 °F 40.7 °F 37.4 °F 71% 29.85 in 10.0 mi West 12.7 mph - N/A   Overcast
2:35 AM 46.4 °F 40.4 °F 37.4 °F 71% 29.85 in 10.0 mi West 13.8 mph - N/A   Overcast
2:55 AM 44.6 °F 38.8 °F 37.4 °F 76% 29.85 in 10.0 mi West 11.5 mph - N/A   Overcast
3:15 AM 44.6 °F 39.7 °F 37.4 °F 76% 29.85 in 10.0 mi West 9.2 mph 17.3 mph N/A   Overcast
3:35 AM 44.6 °F 38.4 °F 37.4 °F 76% 29.85 in 10.0 mi West 12.7 mph - N/A   Overcast
3:55 AM 44.6 °F 38.8 °F 37.4 °F 76% 29.86 in 10.0 mi West 11.5 mph 17.3 mph N/A   Overcast
4:15 AM 44.6 °F 38.4 °F 35.6 °F 71% 29.86 in 10.0 mi West 12.7 mph 17.3 mph N/A   Overcast
4:35 AM 44.6 °F 38.8 °F 37.4 °F 76% 29.87 in 10.0 mi West 11.5 mph - N/A   Overcast
5:16 AM 44.6 °F 38.8 °F 35.6 °F 71% 29.88 in 10.0 mi West 11.5 mph - N/A   Overcast
5:35 AM 44.6 °F 39.7 °F 33.8 °F 66% 29.89 in 10.0 mi West 9.2 mph - N/A   Mostly Cloudy
5:55 AM 42.8 °F 36.2 °F 33.8 °F 70% 29.89 in 10.0 mi West 12.7 mph 17.3 mph N/A   Mostly Cloudy
6:15 AM 42.8 °F 35.8 °F 33.8 °F 70% 29.90 in 10.0 mi West 13.8 mph - N/A   Partly Cloudy
6:35 AM 42.8 °F 37.5 °F 33.8 °F 70% 29.90 in 10.0 mi West 9.2 mph 16.1 mph N/A   Scattered Clouds
6:55 AM 42.8 °F 37.0 °F 33.8 °F 70% 29.91 in 10.0 mi West 10.4 mph - N/A   Scattered Clouds
7:15 AM 42.8 °F 38.0 °F 33.8 °F 70% 29.92 in 10.0 mi West 8.1 mph - N/A   Partly Cloudy
7:35 AM 42.8 °F 37.0 °F 35.6 °F 76% 29.93 in 10.0 mi WSW 10.4 mph 16.1 mph N/A   Partly Cloudy
8:15 AM 44.6 °F 39.7 °F 35.6 °F 71% 29.95 in 10.0 mi West 9.2 mph - N/A   Clear
8:35 AM 44.6 °F 39.7 °F 35.6 °F 71% 29.95 in 10.0 mi West 9.2 mph - N/A   Partly Cloudy
8:55 AM 46.4 °F 40.7 °F 35.6 °F 66% 29.97 in 10.0 mi WSW 12.7 mph 16.1 mph N/A   Scattered Clouds
9:15 AM 46.4 °F 41.5 °F 35.6 °F 66% 29.98 in 10.0 mi West 10.4 mph 17.3 mph N/A   Partly Cloudy
9:35 AM 48.2 °F - 35.6 °F 62% 29.98 in 10.0 mi WNW 9.2 mph 19.6 mph N/A   Mostly Cloudy
9:55 AM 48.2 °F - 35.6 °F 62% 29.99 in 10.0 mi West 12.7 mph 19.6 mph N/A   Scattered Clouds
10:15 AM 50.0 °F - 37.4 °F 62% 29.99 in 10.0 mi West 9.2 mph 18.4 mph N/A   Partly Cloudy
10:35 AM 50.0 °F - 35.6 °F 58% 29.99 in 10.0 mi West 9.2 mph - N/A   Mostly Cloudy
10:55 AM 50.0 °F - 35.6 °F 58% 30.00 in 10.0 mi West 12.7 mph - N/A   Mostly Cloudy
11:15 AM 53.6 °F - 35.6 °F 51% 30.00 in 10.0 mi West 9.2 mph 21.9 mph N/A   Scattered Clouds
11:35 AM 53.6 °F - 35.6 °F 51% 29.99 in 10.0 mi WSW 17.3 mph - N/A   Mostly Cloudy
11:55 AM 51.8 °F - 35.6 °F 54% 29.98 in 10.0 mi WNW 9.2 mph - N/A   Overcast
12:15 PM 53.6 °F - 35.6 °F 51% 29.98 in 10.0 mi WNW 9.2 mph 19.6 mph N/A   Overcast
12:35 PM 53.6 °F - 35.6 °F 51% 29.98 in 10.0 mi West 12.7 mph 17.3 mph N/A   Overcast
12:55 PM 53.6 °F - 35.6 °F 51% 29.98 in 10.0 mi West 9.2 mph 16.1 mph N/A   Overcast
1:15 PM 53.6 °F - 35.6 °F 51% 29.97 in 10.0 mi WSW 13.8 mph 18.4 mph N/A   Overcast
1:55 PM 53.6 °F - 35.6 °F 51% 29.97 in 10.0 mi West 10.4 mph 16.1 mph N/A   Overcast
2:15 PM 53.6 °F - 35.6 °F 51% 29.97 in 10.0 mi WSW 15.0 mph - N/A   Overcast
2:35 PM 55.4 °F - 37.4 °F 51% 29.97 in 10.0 mi WSW 12.7 mph 20.7 mph N/A   Overcast
2:55 PM 55.4 °F - 35.6 °F 47% 29.97 in 10.0 mi WSW 13.8 mph - N/A   Overcast
3:15 PM 55.4 °F - 35.6 °F 47% 29.97 in 10.0 mi West 8.1 mph 19.6 mph N/A   Mostly Cloudy
3:35 PM 55.4 °F - 35.6 °F 47% 29.97 in 10.0 mi West 12.7 mph - N/A   Partly Cloudy
3:55 PM 55.4 °F - 35.6 °F 47% 29.97 in 10.0 mi WNW 8.1 mph - N/A   Partly Cloudy
4:15 PM 55.4 °F - 35.6 °F 47% 29.98 in 10.0 mi West 10.4 mph - N/A   Scattered Clouds
4:35 PM 55.4 °F - 35.6 °F 47% 29.98 in 10.0 mi West 11.5 mph - N/A   Mostly Cloudy
4:55 PM 55.4 °F - 35.6 °F 47% 29.99 in 10.0 mi West 10.4 mph - N/A   Partly Cloudy
5:35 PM 53.6 °F - 35.6 °F 51% 30.00 in 10.0 mi West 5.8 mph - N/A   Clear
5:55 PM 51.8 °F - 35.6 °F 54% 30.00 in 10.0 mi WSW 5.8 mph - N/A   Clear
6:15 PM 50.0 °F - 35.6 °F 58% 30.01 in 10.0 mi SW 4.6 mph - N/A   Clear
6:35 PM 46.4 °F - 37.4 °F 71% 30.02 in 10.0 mi Calm Calm - N/A   Clear
6:55 PM 44.6 °F - 37.4 °F 76% 30.02 in 10.0 mi Calm Calm - N/A   Clear
7:15 PM 42.8 °F - 37.4 °F 81% 30.03 in 10.0 mi Calm Calm - N/A   Clear
7:35 PM 42.8 °F - 37.4 °F 81% 30.04 in 10.0 mi Calm Calm - N/A   Clear
7:55 PM 42.8 °F - 37.4 °F 81% 30.04 in 10.0 mi Calm Calm - N/A   Clear
8:15 PM 41.0 °F 39.0 °F 37.4 °F 87% 30.04 in 10.0 mi WSW 3.5 mph - N/A   Clear
8:35 PM 41.0 °F - 35.6 °F 81% 30.05 in 10.0 mi Calm Calm - N/A   Clear
8:55 PM 39.2 °F - 35.6 °F 87% 30.06 in 10.0 mi Calm Calm - N/A   Clear
9:35 PM 39.2 °F - 35.6 °F 87% 30.07 in 10.0 mi Calm Calm - N/A   Clear
9:55 PM 39.2 °F - 35.6 °F 87% 30.08 in 10.0 mi Calm Calm - N/A   Clear
10:15 PM 39.2 °F - 35.6 °F 87% 30.08 in 10.0 mi Calm Calm - N/A   Clear
10:35 PM 37.4 °F - 33.8 °F 87% 30.08 in 10.0 mi Calm Calm - N/A   Clear
11:15 PM 37.4 °F - 33.8 °F 87% 30.09 in 10.0 mi Calm Calm - N/A   Clear
11:35 PM 37.4 °F - 33.8 °F 87% 30.09 in 10.0 mi Calm Calm - N/A   Clear